createdAt,value
2023-03-02T00:01:11.114Z,47.38
2023-03-02T00:03:43.175Z,48.40
2023-03-02T00:06:15.545Z,51.60
2023-03-02T00:08:47.800Z,51.42
2023-03-02T00:11:19.995Z,49.05
2023-03-02T00:13:52.017Z,52.85
2023-03-02T00:16:24.181Z,49.25
2023-03-02T00:18:56.420Z,59.85
2023-03-02T00:21:28.703Z,57.25
2023-03-02T00:24:01.005Z,53.67
2023-03-02T00:26:36.975Z,56.60
2023-03-02T00:29:09.270Z,64.97
2023-03-02T00:31:41.544Z,62.00
2023-03-02T00:34:13.790Z,61.22
2023-03-02T00:36:47.923Z,64.13
2023-03-02T00:39:20.329Z,58.88
2023-03-02T00:41:52.408Z,59.03
2023-03-02T00:44:24.518Z,60.13
2023-03-02T00:46:56.829Z,54.47
2023-03-02T00:49:28.986Z,61.25
2023-03-02T00:52:01.426Z,59.08
2023-03-02T00:54:33.420Z,65.13
2023-03-02T00:57:05.382Z,63.47
2023-03-02T00:59:39.326Z,63.60
2023-03-02T01:02:11.344Z,64.88
2023-03-02T01:04:44.809Z,69.13
2023-03-02T01:07:20.754Z,64.55
2023-03-02T01:09:52.953Z,64.13
2023-03-02T01:12:24.901Z,67.35
2023-03-02T01:14:57.397Z,65.13
2023-03-02T01:17:29.491Z,62.08
2023-03-02T01:20:01.875Z,62.13
2023-03-02T01:22:33.838Z,65.40
2023-03-02T01:25:06.790Z,61.40
2023-03-02T01:27:39.518Z,65.15
2023-03-02T01:30:13.040Z,55.60
2023-03-02T01:32:45.533Z,58.30
2023-03-02T01:35:17.780Z,61.35
2023-03-02T01:37:49.800Z,53.08
2023-03-02T01:40:21.845Z,63.10
2023-03-02T01:43:02.522Z,55.53
2023-03-02T01:45:53.735Z,58.42
2023-03-02T01:48:54.288Z,56.83
2023-03-02T01:51:29.110Z,53.25
2023-03-02T01:54:10.252Z,59.50
2023-03-02T01:56:42.455Z,57.40
2023-03-02T01:59:19.062Z,52.50
2023-03-02T02:01:57.372Z,56.33
2023-03-02T02:04:32.084Z,59.15
2023-03-02T02:07:07.283Z,47.65
2023-03-02T02:09:50.399Z,49.80
2023-03-02T02:12:23.953Z,51.08
2023-03-02T02:15:00.826Z,54.30
2023-03-02T02:17:33.479Z,51.88
2023-03-02T02:20:24.310Z,55.65
2023-03-02T02:23:33.059Z,55.33
2023-03-02T02:26:22.846Z,46.17
2023-03-02T02:29:08.026Z,49.90
2023-03-02T02:31:51.094Z,49.08
2023-03-02T02:34:50.074Z,46.42
2023-03-02T02:37:58.176Z,53.40
2023-03-02T02:40:52.184Z,49.40
2023-03-02T02:43:24.521Z,54.65
2023-03-02T02:45:58.680Z,52.20
2023-03-02T02:48:32.427Z,50.97
2023-03-02T02:51:08.934Z,53.25
2023-03-02T02:53:48.616Z,59.20
2023-03-02T02:56:20.740Z,56.58
2023-03-02T02:58:56.001Z,54.28
2023-03-02T03:01:28.276Z,56.67
2023-03-02T03:04:06.349Z,56.63
2023-03-02T03:06:42.476Z,53.97
2023-03-02T03:09:14.721Z,55.00
2023-03-02T03:11:55.527Z,49.42
2023-03-02T03:14:41.176Z,49.75
2023-03-02T03:17:14.051Z,52.33
2023-03-02T03:19:48.106Z,56.03
2023-03-02T03:22:20.305Z,51.28
2023-03-02T03:24:52.433Z,52.08
2023-03-02T03:27:24.716Z,51.63
2023-03-02T03:29:57.163Z,47.13
2023-03-02T03:32:29.707Z,50.63
2023-03-02T03:35:02.733Z,51.38
2023-03-02T03:37:35.961Z,47.50
2023-03-02T03:40:09.966Z,59.83
2023-03-02T03:42:42.025Z,52.65
2023-03-02T03:45:14.073Z,53.38
2023-03-02T03:47:46.201Z,52.42
2023-03-02T03:50:18.265Z,52.90
2023-03-02T03:52:50.291Z,50.88
2023-03-02T03:55:22.277Z,55.13
2023-03-02T03:57:55.173Z,51.90
2023-03-02T04:00:27.282Z,54.10
2023-03-02T04:02:59.397Z,60.20
2023-03-02T04:05:31.826Z,56.78
2023-03-02T04:08:04.076Z,57.33
2023-03-02T04:10:36.608Z,56.60
2023-03-02T04:13:08.901Z,54.33
2023-03-02T04:15:42.425Z,51.80
2023-03-02T04:18:14.586Z,58.22
2023-03-02T04:20:46.586Z,55.47
2023-03-02T04:23:18.657Z,55.58
2023-03-02T04:25:50.654Z,51.47
2023-03-02T04:28:22.978Z,55.38
2023-03-02T04:30:54.994Z,52.78
2023-03-02T04:33:27.266Z,53.53
2023-03-02T04:35:59.295Z,53.42
2023-03-02T04:38:31.586Z,54.15
2023-03-02T04:41:03.726Z,47.28
2023-03-02T04:43:35.739Z,49.42
2023-03-02T04:46:08.208Z,49.17
2023-03-02T04:48:40.611Z,54.47
2023-03-02T04:51:33.698Z,54.40
2023-03-02T04:54:11.487Z,46.97
2023-03-02T04:56:43.519Z,50.47
2023-03-02T04:59:17.012Z,51.08
2023-03-02T05:01:49.136Z,55.50
2023-03-02T05:04:21.982Z,54.08
2023-03-02T05:06:54.390Z,49.65
2023-03-02T05:09:28.826Z,59.95
2023-03-02T05:12:01.967Z,53.50
2023-03-02T05:14:34.219Z,52.00
2023-03-02T05:17:06.211Z,51.40
2023-03-02T05:19:38.228Z,55.90
2023-03-02T05:22:10.249Z,50.85
2023-03-02T05:24:42.236Z,55.97
2023-03-02T05:27:14.234Z,54.17
2023-03-02T05:29:46.274Z,55.25
2023-03-02T05:32:18.280Z,53.97
2023-03-02T05:34:50.290Z,49.20
2023-03-02T05:37:22.273Z,51.88
2023-03-02T05:39:54.293Z,55.90
2023-03-02T05:42:26.711Z,51.63
2023-03-02T05:44:58.743Z,50.80
2023-03-02T05:47:30.722Z,52.65
2023-03-02T05:50:03.021Z,52.38
2023-03-02T05:52:35.473Z,50.50
2023-03-02T05:55:08.837Z,54.47
2023-03-02T05:57:41.164Z,49.63
2023-03-02T06:00:14.713Z,49.45
2023-03-02T06:02:46.918Z,47.30
2023-03-02T06:05:22.793Z,58.20
2023-03-02T06:07:54.926Z,53.65
2023-03-02T06:10:27.276Z,51.15
2023-03-02T06:12:59.594Z,54.10
2023-03-02T06:15:31.613Z,55.55
2023-03-02T06:18:03.999Z,58.10
2023-03-02T06:20:36.058Z,49.65
2023-03-02T06:23:08.174Z,51.90
2023-03-02T06:25:43.784Z,52.65
2023-03-02T06:28:19.303Z,48.22
2023-03-02T06:30:52.523Z,55.90
2023-03-02T06:33:24.697Z,50.70
2023-03-02T06:35:57.245Z,53.03
2023-03-02T06:38:29.548Z,51.05
2023-03-02T06:41:01.630Z,52.55
2023-03-02T06:43:33.651Z,55.45
2023-03-02T06:46:05.954Z,52.92
2023-03-02T06:48:40.992Z,46.97
2023-03-02T06:51:13.247Z,52.05
2023-03-02T06:53:45.290Z,51.38
2023-03-02T06:56:17.347Z,55.05
2023-03-02T06:58:49.567Z,50.78
2023-03-02T07:01:21.605Z,53.95
2023-03-02T07:03:54.228Z,57.80
2023-03-02T07:06:26.318Z,51.78
2023-03-02T07:08:58.352Z,49.72
2023-03-02T07:11:30.801Z,53.40
2023-03-02T07:14:03.060Z,49.53
2023-03-02T07:16:35.203Z,47.40
2023-03-02T07:19:12.110Z,49.83
2023-03-02T07:21:44.168Z,43.53
2023-03-02T07:24:16.217Z,45.92
2023-03-02T07:26:48.225Z,58.47
2023-03-02T07:29:20.498Z,42.20
2023-03-02T07:31:57.235Z,45.65
2023-03-02T07:34:29.601Z,45.78
2023-03-02T07:37:01.695Z,49.60
2023-03-02T07:39:33.795Z,45.45
2023-03-02T07:42:09.063Z,46.33
2023-03-02T07:44:41.322Z,43.70
2023-03-02T07:47:13.636Z,45.70
2023-03-02T07:49:45.819Z,44.97
2023-03-02T07:52:18.103Z,43.80
2023-03-02T07:54:50.603Z,43.10
2023-03-02T07:57:22.660Z,42.83
2023-03-02T07:59:54.902Z,53.17
2023-03-02T08:02:27.121Z,51.05
2023-03-02T08:04:59.424Z,55.80
2023-03-02T08:07:31.755Z,40.67
2023-03-02T08:10:05.007Z,39.10
2023-03-02T08:12:37.249Z,38.75
2023-03-02T08:15:10.952Z,45.22
2023-03-02T08:17:43.102Z,42.75
2023-03-02T08:20:15.216Z,46.00
2023-03-02T08:22:47.329Z,38.67
2023-03-02T08:25:19.516Z,44.47
2023-03-02T08:27:51.558Z,49.58
2023-03-02T08:30:23.714Z,37.22
2023-03-02T08:32:55.759Z,45.70
2023-03-02T08:35:27.726Z,43.10
2023-03-02T08:38:02.292Z,45.20
2023-03-02T08:40:34.974Z,45.05
2023-03-02T08:43:08.145Z,43.50
2023-03-02T08:45:40.307Z,41.05
2023-03-02T08:48:12.409Z,42.45
2023-03-02T08:50:44.460Z,41.80
2023-03-02T08:53:16.492Z,45.17
2023-03-02T08:55:48.829Z,41.05
2023-03-02T08:58:21.254Z,35.25
2023-03-02T09:00:53.643Z,38.00
2023-03-02T09:03:25.676Z,38.95
2023-03-02T09:05:57.848Z,37.03
2023-03-02T09:08:29.919Z,36.95
2023-03-02T09:11:02.034Z,34.47
2023-03-02T09:13:34.670Z,36.90
2023-03-02T09:16:08.633Z,35.55
2023-03-02T09:18:41.228Z,41.15
2023-03-02T09:21:13.507Z,36.00
2023-03-02T09:23:45.967Z,44.80
2023-03-02T09:26:17.979Z,38.22
2023-03-02T09:28:50.047Z,47.78
2023-03-02T09:31:22.598Z,39.20
2023-03-02T09:33:57.116Z,36.28
2023-03-02T09:36:31.333Z,46.25
2023-03-02T09:39:08.697Z,39.42
2023-03-02T09:42:02.279Z,38.53
2023-03-02T09:45:09.184Z,36.53
2023-03-02T09:48:21.618Z,38.40
2023-03-02T09:51:39.294Z,38.63
2023-03-02T09:54:20.924Z,35.15
2023-03-02T09:56:58.870Z,39.30
2023-03-02T09:59:42.839Z,42.15
2023-03-02T10:02:35.161Z,38.85
2023-03-02T10:05:15.837Z,38.63
2023-03-02T10:07:48.820Z,39.15
2023-03-02T10:10:45.535Z,42.17
2023-03-02T10:13:22.517Z,41.05
2023-03-02T10:16:27.845Z,41.03
2023-03-02T10:19:10.518Z,44.15
2023-03-02T10:21:47.875Z,43.92
2023-03-02T10:24:56.678Z,45.30
2023-03-02T10:27:39.143Z,42.25
2023-03-02T10:30:28.248Z,36.60
2023-03-02T10:33:08.824Z,41.08
2023-03-02T10:35:50.882Z,44.28
2023-03-02T10:38:28.181Z,36.15
2023-03-02T10:41:07.141Z,37.92
2023-03-02T10:43:56.067Z,39.72
2023-03-02T10:46:44.464Z,40.88
2023-03-02T10:49:31.676Z,37.78
2023-03-02T10:52:19.452Z,39.13
2023-03-02T10:55:10.104Z,42.58
2023-03-02T10:57:46.768Z,48.03
2023-03-02T11:00:24.436Z,45.35
2023-03-02T11:03:04.118Z,36.10
2023-03-02T11:05:39.380Z,48.20
2023-03-02T11:08:18.620Z,40.92
2023-03-02T11:11:03.522Z,40.05
2023-03-02T11:13:38.542Z,40.58
2023-03-02T11:16:20.026Z,41.58
2023-03-02T11:19:00.746Z,46.33
2023-03-02T11:21:40.316Z,41.42
2023-03-02T11:24:51.840Z,38.83
2023-03-02T11:27:36.694Z,39.97
2023-03-02T11:30:19.569Z,38.47
2023-03-02T11:33:01.050Z,37.00
2023-03-02T11:35:54.094Z,37.17
2023-03-02T11:38:33.255Z,34.30
2023-03-02T11:41:34.956Z,33.03
2023-03-02T11:44:27.546Z,37.72
2023-03-02T11:47:02.037Z,30.48
2023-03-02T11:49:43.452Z,36.83
2023-03-02T11:52:26.714Z,31.77
2023-03-02T11:55:23.782Z,33.92
2023-03-02T12:00:59.911Z,44.05
2023-03-02T12:03:31.820Z,29.40
2023-03-02T12:06:28.769Z,34.88
2023-03-02T12:09:25.345Z,33.47
2023-03-02T12:12:25.667Z,31.23
2023-03-02T12:17:31.372Z,30.20
2023-03-02T12:20:09.318Z,32.72
2023-03-02T12:22:42.313Z,30.73
2023-03-02T12:25:20.565Z,32.05
2023-03-02T12:27:55.150Z,47.60
2023-03-02T12:30:28.818Z,38.08
2023-03-02T12:33:18.891Z,36.30
2023-03-02T12:35:57.550Z,36.10
2023-03-02T12:38:35.072Z,35.08
2023-03-02T12:41:39.551Z,28.67
2023-03-02T12:44:31.694Z,26.63
2023-03-02T12:47:10.850Z,29.38
2023-03-02T12:49:55.377Z,29.75
2023-03-02T12:52:33.182Z,27.55
2023-03-02T12:55:18.976Z,24.00
2023-03-02T12:58:01.398Z,28.48
2023-03-02T13:00:35.238Z,32.28
2023-03-02T13:03:17.274Z,30.92
2023-03-02T13:05:49.917Z,35.92
2023-03-02T13:08:32.961Z,32.20
2023-03-02T13:11:05.658Z,40.55
2023-03-02T13:13:43.457Z,26.33
2023-03-02T13:16:27.050Z,27.50
2023-03-02T13:19:09.967Z,29.65
2023-03-02T13:21:42.350Z,35.95
2023-03-02T13:24:52.614Z,30.50
2023-03-02T13:27:26.329Z,31.73
2023-03-02T13:30:24.035Z,30.25
2023-03-02T13:33:05.316Z,28.90
2023-03-02T13:35:38.393Z,29.83
2023-03-02T13:38:18.525Z,28.33
2023-03-02T13:40:53.748Z,31.77
2023-03-02T13:43:40.294Z,27.40
2023-03-02T13:46:12.235Z,28.02
2023-03-02T13:49:09.520Z,28.77
2023-03-02T13:51:49.248Z,27.48
2023-03-02T13:54:27.817Z,29.88
2023-03-02T13:57:02.763Z,25.20
2023-03-02T13:59:38.014Z,29.48
2023-03-02T14:02:29.336Z,25.27
2023-03-02T14:05:01.457Z,25.50
2023-03-02T14:07:33.634Z,27.23
2023-03-02T14:10:06.090Z,26.63
2023-03-02T14:12:41.293Z,29.48
2023-03-02T14:15:16.766Z,26.23
2023-03-02T14:17:49.412Z,26.33
2023-03-02T14:20:21.513Z,28.55
2023-03-02T14:22:56.796Z,32.08
2023-03-02T14:25:32.136Z,29.42
2023-03-02T14:28:04.513Z,31.02
2023-03-02T14:30:36.658Z,30.02
2023-03-02T14:33:17.632Z,32.25
2023-03-02T14:35:52.706Z,35.72
2023-03-02T14:38:27.884Z,29.55
2023-03-02T14:41:00.044Z,27.48
2023-03-02T14:43:32.134Z,30.63
2023-03-02T14:46:04.418Z,27.05
2023-03-02T14:48:36.493Z,29.77
2023-03-02T14:51:22.855Z,31.63
2023-03-02T14:53:57.978Z,27.42
2023-03-02T14:56:30.004Z,26.02
2023-03-02T14:59:02.087Z,30.98
2023-03-02T15:01:34.558Z,34.00
2023-03-02T15:04:06.782Z,31.02
2023-03-02T15:06:42.659Z,29.35
2023-03-02T15:09:14.990Z,34.45
2023-03-02T15:11:47.035Z,33.97
2023-03-02T15:14:19.104Z,32.00
2023-03-02T15:16:51.233Z,29.95
2023-03-02T15:19:23.262Z,32.80
2023-03-02T15:21:58.944Z,34.13
2023-03-02T15:24:33.146Z,32.80
2023-03-02T15:27:05.727Z,28.55
2023-03-02T15:29:37.715Z,34.78
2023-03-02T15:32:09.778Z,32.15
2023-03-02T15:34:42.307Z,32.30
2023-03-02T15:37:15.536Z,35.58
2023-03-02T15:39:47.593Z,33.38
2023-03-02T15:42:22.367Z,31.70
2023-03-02T15:44:54.431Z,37.17
2023-03-02T15:47:27.227Z,41.97
2023-03-02T15:49:59.919Z,43.63
2023-03-02T15:52:32.247Z,36.05
2023-03-02T15:55:05.402Z,38.83
2023-03-02T15:57:40.322Z,38.20
2023-03-02T16:00:13.630Z,41.00
2023-03-02T16:02:49.905Z,40.72
2023-03-02T16:05:22.127Z,40.75
2023-03-02T16:07:54.738Z,37.83
2023-03-02T16:10:30.173Z,35.17
2023-03-02T16:13:06.721Z,39.05
2023-03-02T16:15:42.467Z,47.08
2023-03-02T16:18:15.275Z,45.70
2023-03-02T16:20:47.363Z,42.33
2023-03-02T16:23:19.338Z,45.38
2023-03-02T16:25:51.454Z,46.58
2023-03-02T16:28:23.488Z,43.65
2023-03-02T16:31:13.745Z,40.90
2023-03-02T16:36:18.899Z,43.30
2023-03-02T16:38:50.886Z,44.83
2023-03-02T16:41:24.263Z,42.78
2023-03-02T16:43:58.901Z,48.90
2023-03-02T16:46:39.480Z,43.97
2023-03-02T16:49:13.477Z,45.53
2023-03-02T16:51:45.504Z,50.72
2023-03-02T16:54:17.905Z,52.72
2023-03-02T16:56:50.161Z,50.30
2023-03-02T16:59:22.673Z,56.92
2023-03-02T17:01:55.159Z,55.53
2023-03-02T17:04:27.472Z,51.20
2023-03-02T17:07:01.050Z,48.13
2023-03-02T17:09:41.539Z,50.10
2023-03-02T17:12:13.498Z,48.42
2023-03-02T17:14:45.516Z,50.28
2023-03-02T17:17:17.553Z,52.63
2023-03-02T17:19:50.049Z,50.47
2023-03-02T17:22:22.002Z,55.20
2023-03-02T17:24:53.962Z,57.65
2023-03-02T17:27:27.354Z,58.03
2023-03-02T17:29:59.458Z,55.88
2023-03-02T17:32:31.722Z,57.88
2023-03-02T17:35:04.555Z,48.05
2023-03-02T17:37:37.254Z,63.63
2023-03-02T17:40:13.562Z,55.15
2023-03-02T17:42:46.315Z,52.78
2023-03-02T17:45:22.190Z,54.25
2023-03-02T17:47:56.092Z,58.35
2023-03-02T17:50:33.856Z,51.55
2023-03-02T17:53:05.834Z,60.47
2023-03-02T17:55:39.237Z,54.28
2023-03-02T17:58:11.327Z,54.33
2023-03-02T18:00:43.504Z,54.42
2023-03-02T18:03:15.626Z,55.85
2023-03-02T18:05:47.647Z,53.38
2023-03-02T18:08:19.673Z,56.85
2023-03-02T18:10:51.762Z,57.80
2023-03-02T18:13:23.774Z,56.13
2023-03-02T18:15:55.821Z,58.92
2023-03-02T18:18:27.947Z,53.30
2023-03-02T18:21:07.265Z,53.00
2023-03-02T18:23:39.913Z,51.43
2023-03-02T18:26:14.123Z,47.67
2023-03-02T18:28:46.386Z,44.00
2023-03-02T18:31:19.537Z,50.30
2023-03-02T18:33:51.717Z,41.88
2023-03-02T18:36:23.741Z,40.20
2023-03-02T18:38:55.826Z,44.55
2023-03-02T18:41:27.871Z,46.88
2023-03-02T18:44:01.806Z,48.88
2023-03-02T18:46:34.589Z,59.55
2023-03-02T18:49:06.828Z,59.17
2023-03-02T18:51:40.038Z,47.97
2023-03-02T18:54:12.146Z,47.65
2023-03-02T18:56:44.888Z,51.10
2023-03-02T18:59:17.946Z,47.90
2023-03-02T19:01:50.214Z,49.63
2023-03-02T19:04:26.543Z,54.55
2023-03-02T19:07:00.832Z,52.13
2023-03-02T19:09:34.535Z,59.88
2023-03-02T19:12:06.743Z,48.63
2023-03-02T19:14:42.782Z,46.85
2023-03-02T19:17:14.976Z,44.88
2023-03-02T19:19:47.039Z,43.58
2023-03-02T19:22:19.152Z,45.72
2023-03-02T19:24:51.940Z,47.25
2023-03-02T19:27:24.552Z,46.03
2023-03-02T19:29:56.526Z,43.10
2023-03-02T19:32:29.036Z,46.00
2023-03-02T19:35:02.797Z,40.20
2023-03-02T19:37:34.955Z,41.33
2023-03-02T19:40:08.428Z,39.55
2023-03-02T19:42:41.005Z,37.72
2023-03-02T19:45:28.644Z,40.53
2023-03-02T19:48:01.998Z,34.78
2023-03-02T19:50:34.114Z,39.00
2023-03-02T19:53:06.787Z,38.60
2023-03-02T19:55:39.731Z,37.05
2023-03-02T19:58:17.346Z,40.10
2023-03-02T20:00:50.006Z,40.10
2023-03-02T20:03:22.121Z,37.38
2023-03-02T20:05:59.296Z,48.30
2023-03-02T20:08:31.306Z,35.58
2023-03-02T20:11:03.423Z,35.55
2023-03-02T20:13:36.111Z,38.58
2023-03-02T20:16:09.424Z,41.28
2023-03-02T20:18:42.361Z,40.78
2023-03-02T20:21:14.374Z,34.40
2023-03-02T20:23:49.299Z,37.63
2023-03-02T20:26:24.481Z,45.47
2023-03-02T20:28:59.329Z,40.17
2023-03-02T20:31:33.627Z,36.58
2023-03-02T20:34:09.637Z,36.22
2023-03-02T20:36:41.682Z,40.38
2023-03-02T20:39:31.805Z,38.10
2023-03-02T20:42:05.958Z,32.80
2023-03-02T20:44:38.295Z,34.97
2023-03-02T20:47:15.009Z,34.95
2023-03-02T20:49:47.181Z,31.77
2023-03-02T20:52:19.657Z,34.47
2023-03-02T20:54:52.236Z,31.70
2023-03-02T20:57:24.411Z,31.58
2023-03-02T20:59:56.506Z,37.05
2023-03-02T21:02:28.799Z,30.58
2023-03-02T21:05:00.962Z,33.20
2023-03-02T21:07:35.941Z,35.05
2023-03-02T21:10:11.743Z,35.95
2023-03-02T21:12:45.744Z,30.50
2023-03-02T21:15:26.177Z,36.88
2023-03-02T21:20:34.198Z,38.80
2023-03-02T21:23:06.907Z,37.42
2023-03-02T21:25:41.203Z,38.90
2023-03-02T21:28:14.295Z,31.85
2023-03-02T21:30:47.358Z,31.05
2023-03-02T21:33:19.421Z,35.95
2023-03-02T21:35:51.443Z,35.10
2023-03-02T21:38:27.174Z,39.22
2023-03-02T21:41:02.200Z,37.40
2023-03-02T21:43:34.270Z,39.70
2023-03-02T21:46:06.677Z,37.95
2023-03-02T21:48:39.077Z,39.55
2023-03-02T21:51:13.317Z,34.00
2023-03-02T21:53:53.420Z,38.20
2023-03-02T21:56:26.505Z,39.33
2023-03-02T21:58:58.642Z,36.28
2023-03-02T22:01:33.043Z,36.70
2023-03-02T22:04:05.518Z,43.38
2023-03-02T22:06:37.874Z,38.17
2023-03-02T22:09:11.212Z,32.17
2023-03-02T22:11:43.745Z,35.33
2023-03-02T22:14:20.378Z,34.38
2023-03-02T22:16:52.472Z,37.38
2023-03-02T22:19:31.341Z,38.33
2023-03-02T22:22:33.986Z,31.10
2023-03-02T22:25:18.577Z,32.20
2023-03-02T22:27:50.973Z,35.28
2023-03-02T22:30:24.161Z,36.78
2023-03-02T22:32:56.428Z,35.22
2023-03-02T22:35:28.520Z,45.45
2023-03-02T22:38:08.063Z,36.13
2023-03-02T22:40:41.439Z,37.90
2023-03-02T22:43:35.102Z,37.33
2023-03-02T22:46:20.167Z,32.78
2023-03-02T22:48:53.856Z,33.65
2023-03-02T22:51:31.081Z,38.35
2023-03-02T22:54:03.085Z,36.20
2023-03-02T22:56:43.818Z,39.22
2023-03-02T22:59:19.879Z,37.22
2023-03-02T23:02:01.094Z,34.75
2023-03-02T23:04:38.024Z,33.95
2023-03-02T23:07:19.389Z,39.25
2023-03-02T23:09:51.453Z,35.22
2023-03-02T23:12:27.501Z,42.20
2023-03-02T23:14:59.984Z,39.63
2023-03-02T23:17:36.828Z,42.05
2023-03-02T23:20:14.858Z,37.83
2023-03-02T23:22:46.906Z,41.20
2023-03-02T23:25:19.513Z,40.25
2023-03-02T23:27:52.010Z,37.35
2023-03-02T23:30:24.020Z,40.47
2023-03-02T23:32:56.183Z,43.72
2023-03-02T23:35:28.243Z,39.78
2023-03-02T23:38:01.552Z,36.67
2023-03-02T23:40:33.860Z,37.97
2023-03-02T23:43:05.859Z,41.80
2023-03-02T23:45:39.942Z,39.63
2023-03-02T23:48:11.903Z,53.88
2023-03-02T23:50:45.289Z,48.83
2023-03-02T23:53:20.138Z,46.10
2023-03-02T23:55:57.737Z,47.03
2023-03-02T23:58:29.814Z,43.25
